sensor_id;sensor_type;location;lat;lon;timestamp;P1;durP1;ratioP1;P2;durP2;ratioP2
27489;SDS011;14925;51.026;13.752;2023-04-12T00:01:30;16.95;;;7.13;;
27489;SDS011;14925;51.026;13.752;2023-04-12T00:03:55;13.73;;;7.03;;
27489;SDS011;14925;51.026;13.752;2023-04-12T00:06:21;11.38;;;6.38;;
27489;SDS011;14925;51.026;13.752;2023-04-12T00:08:51;17.50;;;8.05;;
27489;SDS011;14925;51.026;13.752;2023-04-12T00:11:17;13.48;;;7.65;;
27489;SDS011;14925;51.026;13.752;2023-04-12T00:13:42;15.75;;;6.80;;
27489;SDS011;14925;51.026;13.752;2023-04-12T00:16:08;10.93;;;7.05;;
27489;SDS011;14925;51.026;13.752;2023-04-12T00:18:34;13.15;;;7.10;;
27489;SDS011;14925;51.026;13.752;2023-04-12T00:21:02;12.63;;;6.75;;
27489;SDS011;14925;51.026;13.752;2023-04-12T00:23:27;14.93;;;8.43;;
27489;SDS011;14925;51.026;13.752;2023-04-12T00:25:52;14.82;;;7.80;;
27489;SDS011;14925;51.026;13.752;2023-04-12T00:28:18;13.40;;;7.18;;
27489;SDS011;14925;51.026;13.752;2023-04-12T00:30:43;15.07;;;8.02;;
27489;SDS011;14925;51.026;13.752;2023-04-12T00:33:10;14.05;;;7.53;;
27489;SDS011;14925;51.026;13.752;2023-04-12T00:35:35;15.57;;;8.15;;
27489;SDS011;14925;51.026;13.752;2023-04-12T00:38:00;17.27;;;8.27;;
27489;SDS011;14925;51.026;13.752;2023-04-12T00:40:27;16.63;;;7.78;;
27489;SDS011;14925;51.026;13.752;2023-04-12T00:42:53;17.48;;;8.65;;
27489;SDS011;14925;51.026;13.752;2023-04-12T00:45:18;14.18;;;8.30;;
27489;SDS011;14925;51.026;13.752;2023-04-12T00:47:45;22.25;;;8.27;;
27489;SDS011;14925;51.026;13.752;2023-04-12T00:50:10;16.67;;;8.63;;
27489;SDS011;14925;51.026;13.752;2023-04-12T00:52:36;17.27;;;9.05;;
27489;SDS011;14925;51.026;13.752;2023-04-12T00:55:02;11.95;;;8.13;;
27489;SDS011;14925;51.026;13.752;2023-04-12T00:57:30;14.38;;;8.18;;
27489;SDS011;14925;51.026;13.752;2023-04-12T00:59:59;11.77;;;7.25;;
27489;SDS011;14925;51.026;13.752;2023-04-12T01:02:25;11.85;;;7.55;;
27489;SDS011;14925;51.026;13.752;2023-04-12T01:04:50;12.93;;;8.52;;
27489;SDS011;14925;51.026;13.752;2023-04-12T01:15:46;12.65;;;8.23;;
27489;SDS011;14925;51.026;13.752;2023-04-12T01:18:18;13.40;;;8.40;;
27489;SDS011;14925;51.026;13.752;2023-04-12T01:20:52;15.05;;;8.88;;
27489;SDS011;14925;51.026;13.752;2023-04-12T01:28:34;11.25;;;8.25;;
27489;SDS011;14925;51.026;13.752;2023-04-12T01:31:02;16.38;;;9.57;;
27489;SDS011;14925;51.026;13.752;2023-04-12T01:33:29;11.90;;;7.82;;
27489;SDS011;14925;51.026;13.752;2023-04-12T01:35:59;16.23;;;8.93;;
27489;SDS011;14925;51.026;13.752;2023-04-12T01:38:25;14.27;;;7.85;;
27489;SDS011;14925;51.026;13.752;2023-04-12T01:40:51;14.32;;;7.80;;
27489;SDS011;14925;51.026;13.752;2023-04-12T01:43:17;15.70;;;7.90;;
27489;SDS011;14925;51.026;13.752;2023-04-12T01:45:43;15.50;;;8.45;;
27489;SDS011;14925;51.026;13.752;2023-04-12T01:48:09;13.88;;;7.95;;
27489;SDS011;14925;51.026;13.752;2023-04-12T01:53:10;14.57;;;8.52;;
27489;SDS011;14925;51.026;13.752;2023-04-12T01:55:38;8.43;;;5.78;;
27489;SDS011;14925;51.026;13.752;2023-04-12T01:58:04;14.25;;;8.00;;
27489;SDS011;14925;51.026;13.752;2023-04-12T02:00:30;12.77;;;8.13;;
27489;SDS011;14925;51.026;13.752;2023-04-12T02:02:56;15.50;;;8.40;;
27489;SDS011;14925;51.026;13.752;2023-04-12T02:05:23;14.00;;;8.93;;
27489;SDS011;14925;51.026;13.752;2023-04-12T02:07:49;14.70;;;9.30;;
27489;SDS011;14925;51.026;13.752;2023-04-12T02:10:15;16.67;;;9.65;;
27489;SDS011;14925;51.026;13.752;2023-04-12T02:12:40;13.88;;;9.45;;
27489;SDS011;14925;51.026;13.752;2023-04-12T02:15:06;16.75;;;10.05;;
27489;SDS011;14925;51.026;13.752;2023-04-12T02:17:32;16.05;;;8.82;;
27489;SDS011;14925;51.026;13.752;2023-04-12T02:20:00;20.33;;;9.20;;
27489;SDS011;14925;51.026;13.752;2023-04-12T02:22:26;16.77;;;8.27;;
27489;SDS011;14925;51.026;13.752;2023-04-12T02:24:51;16.42;;;8.82;;
27489;SDS011;14925;51.026;13.752;2023-04-12T02:27:17;15.48;;;9.38;;
27489;SDS011;14925;51.026;13.752;2023-04-12T02:29:43;16.50;;;9.07;;
27489;SDS011;14925;51.026;13.752;2023-04-12T02:32:09;18.33;;;8.57;;
27489;SDS011;14925;51.026;13.752;2023-04-12T02:34:35;14.43;;;8.63;;
27489;SDS011;14925;51.026;13.752;2023-04-12T02:37:03;17.65;;;8.50;;
27489;SDS011;14925;51.026;13.752;2023-04-12T02:39:29;19.70;;;9.10;;
27489;SDS011;14925;51.026;13.752;2023-04-12T02:41:56;14.63;;;9.05;;
27489;SDS011;14925;51.026;13.752;2023-04-12T02:44:21;14.57;;;8.43;;
27489;SDS011;14925;51.026;13.752;2023-04-12T02:46:47;15.68;;;8.68;;
27489;SDS011;14925;51.026;13.752;2023-04-12T02:49:12;14.15;;;7.40;;
27489;SDS011;14925;51.026;13.752;2023-04-12T02:51:38;15.45;;;8.65;;
27489;SDS011;14925;51.026;13.752;2023-04-12T02:54:06;15.45;;;8.10;;
27489;SDS011;14925;51.026;13.752;2023-04-12T02:56:34;14.10;;;7.60;;
27489;SDS011;14925;51.026;13.752;2023-04-12T02:59:00;14.05;;;8.10;;
27489;SDS011;14925;51.026;13.752;2023-04-12T03:01:25;18.20;;;8.82;;
27489;SDS011;14925;51.026;13.752;2023-04-12T03:03:50;12.02;;;7.80;;
27489;SDS011;14925;51.026;13.752;2023-04-12T03:06:16;13.32;;;8.10;;
27489;SDS011;14925;51.026;13.752;2023-04-12T03:08:41;11.85;;;8.25;;
27489;SDS011;14925;51.026;13.752;2023-04-12T03:11:07;15.65;;;8.35;;
27489;SDS011;14925;51.026;13.752;2023-04-12T03:13:32;14.73;;;8.77;;
27489;SDS011;14925;51.026;13.752;2023-04-12T03:15:57;14.73;;;7.68;;
27489;SDS011;14925;51.026;13.752;2023-04-12T03:18:23;10.80;;;7.00;;
27489;SDS011;14925;51.026;13.752;2023-04-12T03:20:49;13.00;;;8.10;;
27489;SDS011;14925;51.026;13.752;2023-04-12T03:23:16;13.07;;;7.10;;
27489;SDS011;14925;51.026;13.752;2023-04-12T03:25:41;12.90;;;8.13;;
27489;SDS011;14925;51.026;13.752;2023-04-12T03:28:08;14.85;;;7.00;;
27489;SDS011;14925;51.026;13.752;2023-04-12T03:30:33;9.77;;;6.70;;
27489;SDS011;14925;51.026;13.752;2023-04-12T03:32:59;11.10;;;6.35;;
27489;SDS011;14925;51.026;13.752;2023-04-12T03:35:24;11.38;;;6.47;;
27489;SDS011;14925;51.026;13.752;2023-04-12T03:37:50;13.00;;;6.72;;
27489;SDS011;14925;51.026;13.752;2023-04-12T03:40:15;9.35;;;5.75;;
27489;SDS011;14925;51.026;13.752;2023-04-12T03:42:41;12.95;;;6.47;;
27489;SDS011;14925;51.026;13.752;2023-04-12T03:45:06;10.85;;;6.30;;
27489;SDS011;14925;51.026;13.752;2023-04-12T03:47:32;11.05;;;6.15;;
27489;SDS011;14925;51.026;13.752;2023-04-12T03:50:01;9.50;;;6.38;;
27489;SDS011;14925;51.026;13.752;2023-04-12T03:52:30;19.17;;;7.05;;
27489;SDS011;14925;51.026;13.752;2023-04-12T03:54:56;14.68;;;7.03;;
27489;SDS011;14925;51.026;13.752;2023-04-12T03:57:21;10.70;;;6.65;;
27489;SDS011;14925;51.026;13.752;2023-04-12T03:59:47;11.15;;;7.05;;
27489;SDS011;14925;51.026;13.752;2023-04-12T04:02:12;11.50;;;7.47;;
27489;SDS011;14925;51.026;13.752;2023-04-12T04:04:37;12.00;;;7.43;;
27489;SDS011;14925;51.026;13.752;2023-04-12T04:07:03;13.90;;;8.65;;
27489;SDS011;14925;51.026;13.752;2023-04-12T04:09:28;14.18;;;9.00;;
27489;SDS011;14925;51.026;13.752;2023-04-12T04:11:53;14.30;;;8.27;;
27489;SDS011;14925;51.026;13.752;2023-04-12T04:14:19;13.07;;;7.28;;
27489;SDS011;14925;51.026;13.752;2023-04-12T04:16:45;15.07;;;8.30;;
27489;SDS011;14925;51.026;13.752;2023-04-12T04:19:10;18.33;;;9.05;;
27489;SDS011;14925;51.026;13.752;2023-04-12T04:21:36;13.85;;;8.65;;
27489;SDS011;14925;51.026;13.752;2023-04-12T04:24:01;13.85;;;8.52;;
27489;SDS011;14925;51.026;13.752;2023-04-12T04:26:28;15.00;;;8.20;;
27489;SDS011;14925;51.026;13.752;2023-04-12T04:28:59;11.80;;;6.82;;
27489;SDS011;14925;51.026;13.752;2023-04-12T04:31:28;16.52;;;7.75;;
27489;SDS011;14925;51.026;13.752;2023-04-12T04:34:04;14.05;;;7.97;;
27489;SDS011;14925;51.026;13.752;2023-04-12T04:36:32;15.95;;;9.20;;
27489;SDS011;14925;51.026;13.752;2023-04-12T04:38:58;12.07;;;8.25;;
27489;SDS011;14925;51.026;13.752;2023-04-12T04:41:23;19.02;;;10.30;;
27489;SDS011;14925;51.026;13.752;2023-04-12T04:43:49;16.60;;;9.35;;
27489;SDS011;14925;51.026;13.752;2023-04-12T04:46:15;12.63;;;7.65;;
27489;SDS011;14925;51.026;13.752;2023-04-12T04:48:44;19.40;;;11.23;;
27489;SDS011;14925;51.026;13.752;2023-04-12T04:51:10;17.92;;;7.82;;
27489;SDS011;14925;51.026;13.752;2023-04-12T04:53:36;11.77;;;6.10;;
27489;SDS011;14925;51.026;13.752;2023-04-12T04:56:02;8.00;;;5.85;;
27489;SDS011;14925;51.026;13.752;2023-04-12T04:58:27;11.65;;;6.43;;
27489;SDS011;14925;51.026;13.752;2023-04-12T05:00:56;7.53;;;5.13;;
27489;SDS011;14925;51.026;13.752;2023-04-12T05:03:21;11.05;;;6.15;;
27489;SDS011;14925;51.026;13.752;2023-04-12T05:05:50;12.25;;;6.68;;
27489;SDS011;14925;51.026;13.752;2023-04-12T05:08:17;11.50;;;5.60;;
27489;SDS011;14925;51.026;13.752;2023-04-12T05:10:42;12.00;;;6.45;;
27489;SDS011;14925;51.026;13.752;2023-04-12T05:13:08;13.75;;;6.93;;
27489;SDS011;14925;51.026;13.752;2023-04-12T05:15:34;14.23;;;7.07;;
27489;SDS011;14925;51.026;13.752;2023-04-12T05:17:59;13.00;;;6.70;;
27489;SDS011;14925;51.026;13.752;2023-04-12T05:20:25;10.82;;;6.50;;
27489;SDS011;14925;51.026;13.752;2023-04-12T05:22:50;12.82;;;7.57;;
27489;SDS011;14925;51.026;13.752;2023-04-12T05:25:18;13.85;;;8.15;;
27489;SDS011;14925;51.026;13.752;2023-04-12T05:27:45;14.27;;;6.90;;
27489;SDS011;14925;51.026;13.752;2023-04-12T05:30:11;13.32;;;6.90;;
27489;SDS011;14925;51.026;13.752;2023-04-12T05:32:37;11.48;;;6.93;;
27489;SDS011;14925;51.026;13.752;2023-04-12T05:35:02;12.82;;;6.70;;
27489;SDS011;14925;51.026;13.752;2023-04-12T05:37:28;11.57;;;5.75;;
27489;SDS011;14925;51.026;13.752;2023-04-12T05:39:53;12.55;;;6.95;;
27489;SDS011;14925;51.026;13.752;2023-04-12T05:42:19;11.50;;;7.38;;
27489;SDS011;14925;51.026;13.752;2023-04-12T05:44:44;12.98;;;8.35;;
27489;SDS011;14925;51.026;13.752;2023-04-12T05:47:09;13.13;;;7.38;;
27489;SDS011;14925;51.026;13.752;2023-04-12T05:49:35;11.30;;;6.82;;
27489;SDS011;14925;51.026;13.752;2023-04-12T05:52:00;12.70;;;6.47;;
27489;SDS011;14925;51.026;13.752;2023-04-12T05:54:26;12.68;;;7.13;;
27489;SDS011;14925;51.026;13.752;2023-04-12T05:56:51;12.23;;;6.82;;
27489;SDS011;14925;51.026;13.752;2023-04-12T05:59:18;12.52;;;6.03;;
27489;SDS011;14925;51.026;13.752;2023-04-12T06:01:44;10.52;;;6.53;;
27489;SDS011;14925;51.026;13.752;2023-04-12T06:04:09;11.73;;;6.90;;
27489;SDS011;14925;51.026;13.752;2023-04-12T06:06:35;14.57;;;6.53;;
27489;SDS011;14925;51.026;13.752;2023-04-12T06:09:00;15.93;;;6.43;;
27489;SDS011;14925;51.026;13.752;2023-04-12T06:11:26;18.30;;;7.07;;
27489;SDS011;14925;51.026;13.752;2023-04-12T06:13:55;11.38;;;6.25;;
27489;SDS011;14925;51.026;13.752;2023-04-12T06:16:21;11.35;;;7.25;;
27489;SDS011;14925;51.026;13.752;2023-04-12T06:18:46;14.63;;;7.30;;
27489;SDS011;14925;51.026;13.752;2023-04-12T06:21:12;12.70;;;7.90;;
27489;SDS011;14925;51.026;13.752;2023-04-12T06:23:37;18.48;;;8.25;;
27489;SDS011;14925;51.026;13.752;2023-04-12T06:26:02;14.32;;;8.27;;
27489;SDS011;14925;51.026;13.752;2023-04-12T06:28:28;15.07;;;8.10;;
27489;SDS011;14925;51.026;13.752;2023-04-12T06:30:56;10.90;;;7.25;;
27489;SDS011;14925;51.026;13.752;2023-04-12T06:33:21;11.15;;;7.88;;
27489;SDS011;14925;51.026;13.752;2023-04-12T06:35:47;14.73;;;8.13;;
27489;SDS011;14925;51.026;13.752;2023-04-12T06:38:13;17.75;;;8.65;;
27489;SDS011;14925;51.026;13.752;2023-04-12T06:40:38;15.18;;;8.48;;
27489;SDS011;14925;51.026;13.752;2023-04-12T06:43:03;15.13;;;8.80;;
27489;SDS011;14925;51.026;13.752;2023-04-12T06:45:32;16.35;;;8.75;;
27489;SDS011;14925;51.026;13.752;2023-04-12T06:47:57;18.05;;;8.75;;
27489;SDS011;14925;51.026;13.752;2023-04-12T06:50:23;15.15;;;8.40;;
27489;SDS011;14925;51.026;13.752;2023-04-12T06:52:49;14.88;;;8.82;;
27489;SDS011;14925;51.026;13.752;2023-04-12T06:55:15;16.50;;;9.02;;
27489;SDS011;14925;51.026;13.752;2023-04-12T06:57:41;15.68;;;9.25;;
27489;SDS011;14925;51.026;13.752;2023-04-12T07:00:07;20.58;;;8.80;;
27489;SDS011;14925;51.026;13.752;2023-04-12T07:02:33;16.13;;;8.55;;
27489;SDS011;14925;51.026;13.752;2023-04-12T07:04:58;12.23;;;8.02;;
27489;SDS011;14925;51.026;13.752;2023-04-12T07:07:23;12.38;;;8.27;;
27489;SDS011;14925;51.026;13.752;2023-04-12T07:09:49;13.25;;;7.50;;
27489;SDS011;14925;51.026;13.752;2023-04-12T07:12:16;19.85;;;8.13;;
27489;SDS011;14925;51.026;13.752;2023-04-12T07:14:41;13.07;;;8.15;;
27489;SDS011;14925;51.026;13.752;2023-04-12T07:17:07;12.43;;;7.55;;
27489;SDS011;14925;51.026;13.752;2023-04-12T07:19:32;13.00;;;7.22;;
27489;SDS011;14925;51.026;13.752;2023-04-12T07:21:57;11.20;;;7.00;;
27489;SDS011;14925;51.026;13.752;2023-04-12T07:24:23;11.13;;;6.30;;
27489;SDS011;14925;51.026;13.752;2023-04-12T07:26:49;14.68;;;7.28;;
27489;SDS011;14925;51.026;13.752;2023-04-12T07:29:17;10.98;;;6.70;;
27489;SDS011;14925;51.026;13.752;2023-04-12T07:31:43;9.98;;;6.35;;
27489;SDS011;14925;51.026;13.752;2023-04-12T07:34:08;14.95;;;6.53;;
27489;SDS011;14925;51.026;13.752;2023-04-12T07:36:33;11.90;;;6.22;;
27489;SDS011;14925;51.026;13.752;2023-04-12T07:38:59;12.65;;;6.38;;
27489;SDS011;14925;51.026;13.752;2023-04-12T07:41:24;10.18;;;5.82;;
27489;SDS011;14925;51.026;13.752;2023-04-12T07:43:50;8.45;;;5.90;;
27489;SDS011;14925;51.026;13.752;2023-04-12T07:46:15;10.48;;;5.95;;
27489;SDS011;14925;51.026;13.752;2023-04-12T07:48:41;10.73;;;5.70;;
27489;SDS011;14925;51.026;13.752;2023-04-12T07:51:07;7.78;;;5.32;;
27489;SDS011;14925;51.026;13.752;2023-04-12T07:53:33;8.57;;;4.65;;
27489;SDS011;14925;51.026;13.752;2023-04-12T07:55:58;7.28;;;4.50;;
27489;SDS011;14925;51.026;13.752;2023-04-12T07:58:23;10.38;;;4.43;;
27489;SDS011;14925;51.026;13.752;2023-04-12T08:00:49;10.90;;;4.10;;
27489;SDS011;14925;51.026;13.752;2023-04-12T08:03:15;8.18;;;3.78;;
27489;SDS011;14925;51.026;13.752;2023-04-12T08:05:44;7.75;;;3.40;;
27489;SDS011;14925;51.026;13.752;2023-04-12T08:08:11;6.78;;;3.30;;
27489;SDS011;14925;51.026;13.752;2023-04-12T08:10:36;8.88;;;2.85;;
27489;SDS011;14925;51.026;13.752;2023-04-12T08:13:03;9.43;;;2.63;;
27489;SDS011;14925;51.026;13.752;2023-04-12T08:15:29;7.85;;;2.40;;
27489;SDS011;14925;51.026;13.752;2023-04-12T08:17:55;7.13;;;1.92;;
27489;SDS011;14925;51.026;13.752;2023-04-12T08:20:20;12.60;;;2.25;;
27489;SDS011;14925;51.026;13.752;2023-04-12T08:22:46;4.22;;;1.38;;
27489;SDS011;14925;51.026;13.752;2023-04-12T08:25:12;5.30;;;1.45;;
27489;SDS011;14925;51.026;13.752;2023-04-12T08:27:38;4.25;;;1.20;;
27489;SDS011;14925;51.026;13.752;2023-04-12T08:30:07;5.60;;;1.50;;
27489;SDS011;14925;51.026;13.752;2023-04-12T08:32:34;6.07;;;1.45;;
27489;SDS011;14925;51.026;13.752;2023-04-12T08:35:01;5.68;;;1.70;;
27489;SDS011;14925;51.026;13.752;2023-04-12T08:37:27;5.47;;;1.40;;
27489;SDS011;14925;51.026;13.752;2023-04-12T08:39:52;4.30;;;1.52;;
27489;SDS011;14925;51.026;13.752;2023-04-12T08:42:18;6.82;;;1.40;;
27489;SDS011;14925;51.026;13.752;2023-04-12T08:44:43;5.95;;;1.50;;
27489;SDS011;14925;51.026;13.752;2023-04-12T08:47:09;4.75;;;1.58;;
27489;SDS011;14925;51.026;13.752;2023-04-12T08:49:35;5.60;;;1.75;;
27489;SDS011;14925;51.026;13.752;2023-04-12T08:52:04;4.63;;;1.42;;
27489;SDS011;14925;51.026;13.752;2023-04-12T08:54:31;9.20;;;1.40;;
27489;SDS011;14925;51.026;13.752;2023-04-12T08:56:58;7.30;;;1.35;;
27489;SDS011;14925;51.026;13.752;2023-04-12T08:59:28;6.10;;;1.40;;
27489;SDS011;14925;51.026;13.752;2023-04-12T09:01:54;15.27;;;1.45;;
27489;SDS011;14925;51.026;13.752;2023-04-12T09:04:20;5.15;;;1.20;;
27489;SDS011;14925;51.026;13.752;2023-04-12T09:06:46;4.00;;;1.25;;
27489;SDS011;14925;51.026;13.752;2023-04-12T09:09:12;5.43;;;2.10;;
27489;SDS011;14925;51.026;13.752;2023-04-12T09:11:37;4.15;;;1.30;;
27489;SDS011;14925;51.026;13.752;2023-04-12T09:14:21;6.00;;;1.35;;
27489;SDS011;14925;51.026;13.752;2023-04-12T09:16:48;6.53;;;1.20;;
27489;SDS011;14925;51.026;13.752;2023-04-12T09:19:23;4.60;;;1.30;;
27489;SDS011;14925;51.026;13.752;2023-04-12T09:21:55;5.05;;;1.48;;
27489;SDS011;14925;51.026;13.752;2023-04-12T09:24:20;7.68;;;1.50;;
27489;SDS011;14925;51.026;13.752;2023-04-12T09:27:00;6.70;;;1.38;;
27489;SDS011;14925;51.026;13.752;2023-04-12T09:29:29;6.88;;;1.52;;
27489;SDS011;14925;51.026;13.752;2023-04-12T09:32:02;7.93;;;1.77;;
27489;SDS011;14925;51.026;13.752;2023-04-12T09:34:33;4.85;;;1.60;;
27489;SDS011;14925;51.026;13.752;2023-04-12T09:37:12;5.20;;;1.45;;
27489;SDS011;14925;51.026;13.752;2023-04-12T09:39:38;4.95;;;1.60;;
27489;SDS011;14925;51.026;13.752;2023-04-12T09:42:07;4.38;;;1.55;;
27489;SDS011;14925;51.026;13.752;2023-04-12T09:44:36;7.82;;;1.90;;
27489;SDS011;14925;51.026;13.752;2023-04-12T09:47:02;4.10;;;1.20;;
27489;SDS011;14925;51.026;13.752;2023-04-12T09:49:39;7.30;;;1.58;;
27489;SDS011;14925;51.026;13.752;2023-04-12T09:52:07;5.55;;;1.55;;
27489;SDS011;14925;51.026;13.752;2023-04-12T09:54:46;3.92;;;1.20;;
27489;SDS011;14925;51.026;13.752;2023-04-12T09:57:16;6.68;;;1.42;;
27489;SDS011;14925;51.026;13.752;2023-04-12T09:59:42;5.97;;;1.60;;
27489;SDS011;14925;51.026;13.752;2023-04-12T10:02:17;4.25;;;1.70;;
27489;SDS011;14925;51.026;13.752;2023-04-12T10:04:44;6.38;;;1.48;;
27489;SDS011;14925;51.026;13.752;2023-04-12T10:07:10;5.05;;;1.58;;
27489;SDS011;14925;51.026;13.752;2023-04-12T10:09:39;6.38;;;1.50;;
27489;SDS011;14925;51.026;13.752;2023-04-12T10:12:05;5.07;;;1.65;;
27489;SDS011;14925;51.026;13.752;2023-04-12T10:14:31;7.30;;;1.67;;
27489;SDS011;14925;51.026;13.752;2023-04-12T10:16:58;4.75;;;1.75;;
27489;SDS011;14925;51.026;13.752;2023-04-12T10:19:25;4.88;;;1.85;;
27489;SDS011;14925;51.026;13.752;2023-04-12T10:21:51;8.50;;;1.80;;
27489;SDS011;14925;51.026;13.752;2023-04-12T10:24:19;9.55;;;2.20;;
27489;SDS011;14925;51.026;13.752;2023-04-12T10:26:45;7.28;;;2.20;;
27489;SDS011;14925;51.026;13.752;2023-04-12T10:29:27;5.90;;;2.30;;
27489;SDS011;14925;51.026;13.752;2023-04-12T10:31:53;6.63;;;2.10;;
27489;SDS011;14925;51.026;13.752;2023-04-12T10:34:29;6.93;;;2.10;;
27489;SDS011;14925;51.026;13.752;2023-04-12T10:36:55;6.25;;;2.10;;
27489;SDS011;14925;51.026;13.752;2023-04-12T10:44:47;7.30;;;2.40;;
27489;SDS011;14925;51.026;13.752;2023-04-12T10:47:12;7.18;;;2.78;;
27489;SDS011;14925;51.026;13.752;2023-04-12T10:49:38;8.43;;;2.90;;
27489;SDS011;14925;51.026;13.752;2023-04-12T10:54:29;7.88;;;2.55;;
27489;SDS011;14925;51.026;13.752;2023-04-12T10:56:56;10.82;;;2.90;;
27489;SDS011;14925;51.026;13.752;2023-04-12T10:59:21;8.88;;;3.20;;
27489;SDS011;14925;51.026;13.752;2023-04-12T11:04:31;8.07;;;2.87;;
27489;SDS011;14925;51.026;13.752;2023-04-12T11:06:59;8.18;;;3.13;;
27489;SDS011;14925;51.026;13.752;2023-04-12T11:14:32;9.48;;;3.22;;
27489;SDS011;14925;51.026;13.752;2023-04-12T11:19:31;8.20;;;3.20;;
27489;SDS011;14925;51.026;13.752;2023-04-12T11:21:58;6.28;;;3.40;;
27489;SDS011;14925;51.026;13.752;2023-04-12T11:24:25;9.20;;;2.95;;
27489;SDS011;14925;51.026;13.752;2023-04-12T11:26:51;10.10;;;3.63;;
27489;SDS011;14925;51.026;13.752;2023-04-12T11:29:29;8.73;;;3.30;;
27489;SDS011;14925;51.026;13.752;2023-04-12T11:31:56;12.82;;;3.70;;
27489;SDS011;14925;51.026;13.752;2023-04-12T11:34:22;7.80;;;3.25;;
27489;SDS011;14925;51.026;13.752;2023-04-12T11:36:51;5.85;;;3.20;;
27489;SDS011;14925;51.026;13.752;2023-04-12T11:39:17;9.13;;;3.53;;
27489;SDS011;14925;51.026;13.752;2023-04-12T11:41:44;9.18;;;3.83;;
27489;SDS011;14925;51.026;13.752;2023-04-12T11:44:11;8.35;;;3.47;;
27489;SDS011;14925;51.026;13.752;2023-04-12T11:46:37;8.38;;;3.28;;
27489;SDS011;14925;51.026;13.752;2023-04-12T11:49:02;7.57;;;3.08;;
27489;SDS011;14925;51.026;13.752;2023-04-12T11:51:28;9.02;;;2.90;;
27489;SDS011;14925;51.026;13.752;2023-04-12T11:53:56;6.90;;;3.25;;
27489;SDS011;14925;51.026;13.752;2023-04-12T11:56:22;9.02;;;3.17;;
27489;SDS011;14925;51.026;13.752;2023-04-12T11:58:48;10.95;;;4.03;;
27489;SDS011;14925;51.026;13.752;2023-04-12T12:01:17;8.07;;;3.40;;
27489;SDS011;14925;51.026;13.752;2023-04-12T12:03:44;8.75;;;3.38;;
27489;SDS011;14925;51.026;13.752;2023-04-12T12:06:10;6.60;;;2.90;;
27489;SDS011;14925;51.026;13.752;2023-04-12T12:08:35;8.23;;;3.28;;
27489;SDS011;14925;51.026;13.752;2023-04-12T12:11:03;5.28;;;2.60;;
27489;SDS011;14925;51.026;13.752;2023-04-12T12:13:47;9.88;;;3.58;;
27489;SDS011;14925;51.026;13.752;2023-04-12T12:16:27;9.18;;;2.75;;
27489;SDS011;14925;51.026;13.752;2023-04-12T12:18:54;7.70;;;3.13;;
27489;SDS011;14925;51.026;13.752;2023-04-12T12:21:20;10.27;;;3.13;;
27489;SDS011;14925;51.026;13.752;2023-04-12T12:23:48;7.70;;;2.70;;
27489;SDS011;14925;51.026;13.752;2023-04-12T12:26:32;8.70;;;2.83;;
27489;SDS011;14925;51.026;13.752;2023-04-12T12:29:01;6.35;;;2.53;;
27489;SDS011;14925;51.026;13.752;2023-04-12T12:31:26;6.25;;;2.80;;
27489;SDS011;14925;51.026;13.752;2023-04-12T12:33:53;5.30;;;2.47;;
27489;SDS011;14925;51.026;13.752;2023-04-12T12:36:27;8.43;;;2.50;;
27489;SDS011;14925;51.026;13.752;2023-04-12T12:38:53;5.78;;;2.25;;
27489;SDS011;14925;51.026;13.752;2023-04-12T12:41:20;11.77;;;2.53;;
27489;SDS011;14925;51.026;13.752;2023-04-12T12:43:47;9.70;;;2.60;;
27489;SDS011;14925;51.026;13.752;2023-04-12T12:46:17;9.05;;;2.70;;
27489;SDS011;14925;51.026;13.752;2023-04-12T12:48:44;6.03;;;2.97;;
27489;SDS011;14925;51.026;13.752;2023-04-12T12:51:10;6.95;;;2.50;;
27489;SDS011;14925;51.026;13.752;2023-04-12T12:53:37;6.53;;;2.00;;
27489;SDS011;14925;51.026;13.752;2023-04-12T12:56:03;10.18;;;1.90;;
27489;SDS011;14925;51.026;13.752;2023-04-12T12:58:29;5.93;;;1.90;;
27489;SDS011;14925;51.026;13.752;2023-04-12T13:00:54;4.90;;;1.50;;
27489;SDS011;14925;51.026;13.752;2023-04-12T13:03:23;5.80;;;1.80;;
27489;SDS011;14925;51.026;13.752;2023-04-12T13:05:49;6.43;;;1.88;;
27489;SDS011;14925;51.026;13.752;2023-04-12T13:08:14;7.85;;;2.22;;
27489;SDS011;14925;51.026;13.752;2023-04-12T13:10:40;7.90;;;1.63;;
27489;SDS011;14925;51.026;13.752;2023-04-12T13:13:05;6.80;;;1.75;;
27489;SDS011;14925;51.026;13.752;2023-04-12T13:15:31;7.50;;;1.67;;
27489;SDS011;14925;51.026;13.752;2023-04-12T13:17:56;7.82;;;1.60;;
27489;SDS011;14925;51.026;13.752;2023-04-12T13:20:24;4.70;;;1.63;;
27489;SDS011;14925;51.026;13.752;2023-04-12T13:22:51;11.00;;;2.10;;
27489;SDS011;14925;51.026;13.752;2023-04-12T13:25:17;4.32;;;1.67;;
27489;SDS011;14925;51.026;13.752;2023-04-12T13:27:54;4.47;;;1.48;;
27489;SDS011;14925;51.026;13.752;2023-04-12T13:32:45;7.72;;;1.60;;
27489;SDS011;14925;51.026;13.752;2023-04-12T13:35:10;4.50;;;1.58;;
27489;SDS011;14925;51.026;13.752;2023-04-12T13:37:36;4.05;;;1.38;;
27489;SDS011;14925;51.026;13.752;2023-04-12T13:40:02;6.68;;;1.55;;
27489;SDS011;14925;51.026;13.752;2023-04-12T13:42:31;4.28;;;1.38;;
27489;SDS011;14925;51.026;13.752;2023-04-12T13:44:57;7.32;;;1.70;;
27489;SDS011;14925;51.026;13.752;2023-04-12T13:47:22;4.78;;;1.63;;
27489;SDS011;14925;51.026;13.752;2023-04-12T13:49:48;6.40;;;1.48;;
27489;SDS011;14925;51.026;13.752;2023-04-12T13:52:13;7.78;;;1.77;;
27489;SDS011;14925;51.026;13.752;2023-04-12T13:54:41;9.35;;;1.77;;
27489;SDS011;14925;51.026;13.752;2023-04-12T13:57:07;6.43;;;1.77;;
27489;SDS011;14925;51.026;13.752;2023-04-12T13:59:33;6.60;;;1.85;;
27489;SDS011;14925;51.026;13.752;2023-04-12T14:01:59;4.68;;;1.50;;
27489;SDS011;14925;51.026;13.752;2023-04-12T14:04:26;6.88;;;1.65;;
27489;SDS011;14925;51.026;13.752;2023-04-12T14:06:52;4.80;;;1.50;;
27489;SDS011;14925;51.026;13.752;2023-04-12T14:09:27;5.03;;;1.42;;
27489;SDS011;14925;51.026;13.752;2023-04-12T14:11:55;3.70;;;1.50;;
27489;SDS011;14925;51.026;13.752;2023-04-12T14:14:22;10.32;;;1.70;;
27489;SDS011;14925;51.026;13.752;2023-04-12T14:16:51;6.53;;;1.33;;
27489;SDS011;14925;51.026;13.752;2023-04-12T14:19:20;6.63;;;1.50;;
27489;SDS011;14925;51.026;13.752;2023-04-12T14:21:47;14.27;;;1.50;;
27489;SDS011;14925;51.026;13.752;2023-04-12T14:24:13;5.85;;;1.40;;
27489;SDS011;14925;51.026;13.752;2023-04-12T14:26:40;8.30;;;1.60;;
27489;SDS011;14925;51.026;13.752;2023-04-12T14:29:05;5.25;;;1.50;;
27489;SDS011;14925;51.026;13.752;2023-04-12T14:31:31;4.72;;;1.50;;
27489;SDS011;14925;51.026;13.752;2023-04-12T14:33:57;7.10;;;1.70;;
27489;SDS011;14925;51.026;13.752;2023-04-12T14:36:23;5.50;;;1.60;;
27489;SDS011;14925;51.026;13.752;2023-04-12T14:38:49;5.30;;;1.63;;
27489;SDS011;14925;51.026;13.752;2023-04-12T14:41:14;4.18;;;1.88;;
27489;SDS011;14925;51.026;13.752;2023-04-12T14:43:41;4.40;;;1.67;;
27489;SDS011;14925;51.026;13.752;2023-04-12T14:46:06;9.57;;;1.75;;
27489;SDS011;14925;51.026;13.752;2023-04-12T14:48:31;7.38;;;1.58;;
27489;SDS011;14925;51.026;13.752;2023-04-12T14:50:57;5.88;;;1.90;;
27489;SDS011;14925;51.026;13.752;2023-04-12T14:53:22;7.05;;;2.17;;
27489;SDS011;14925;51.026;13.752;2023-04-12T14:55:48;6.47;;;1.95;;
27489;SDS011;14925;51.026;13.752;2023-04-12T14:58:13;5.07;;;1.80;;
27489;SDS011;14925;51.026;13.752;2023-04-12T15:00:38;6.75;;;1.70;;
27489;SDS011;14925;51.026;13.752;2023-04-12T15:03:04;5.45;;;2.03;;